sensor_id;sensor_type;location;lat;lon;timestamp;P1;durP1;ratioP1;P2;durP2;ratioP2
86327;SDS011;76984;52.332;10.562;2024-03-25T00:00:46;6.30;;;2.15;;
86327;SDS011;76984;52.332;10.562;2024-03-25T00:01:46;4.97;;;1.50;;
86327;SDS011;76984;52.332;10.562;2024-03-25T00:02:46;5.38;;;1.75;;
86327;SDS011;76984;52.332;10.562;2024-03-25T00:03:47;6.38;;;1.45;;
86327;SDS011;76984;52.332;10.562;2024-03-25T00:04:47;6.80;;;2.13;;
86327;SDS011;76984;52.332;10.562;2024-03-25T00:05:47;7.68;;;2.28;;
86327;SDS011;76984;52.332;10.562;2024-03-25T00:06:48;4.28;;;1.60;;
86327;SDS011;76984;52.332;10.562;2024-03-25T00:07:49;7.75;;;2.05;;
86327;SDS011;76984;52.332;10.562;2024-03-25T00:08:50;3.50;;;1.60;;
86327;SDS011;76984;52.332;10.562;2024-03-25T00:09:50;4.05;;;1.45;;
86327;SDS011;76984;52.332;10.562;2024-03-25T00:10:50;7.15;;;2.13;;
86327;SDS011;76984;52.332;10.562;2024-03-25T00:11:50;4.03;;;1.70;;
86327;SDS011;76984;52.332;10.562;2024-03-25T00:12:54;5.20;;;1.58;;
86327;SDS011;76984;52.332;10.562;2024-03-25T00:13:56;3.13;;;1.35;;
86327;SDS011;76984;52.332;10.562;2024-03-25T00:14:56;5.25;;;1.73;;
86327;SDS011;76984;52.332;10.562;2024-03-25T00:15:57;3.97;;;1.30;;
86327;SDS011;76984;52.332;10.562;2024-03-25T00:16:57;5.32;;;1.30;;
86327;SDS011;76984;52.332;10.562;2024-03-25T00:17:57;3.72;;;1.52;;
86327;SDS011;76984;52.332;10.562;2024-03-25T00:18:58;3.75;;;1.00;;
86327;SDS011;76984;52.332;10.562;2024-03-25T00:19:58;6.32;;;1.30;;
86327;SDS011;76984;52.332;10.562;2024-03-25T00:20:59;3.97;;;1.10;;
86327;SDS011;76984;52.332;10.562;2024-03-25T00:21:59;6.78;;;1.27;;
86327;SDS011;76984;52.332;10.562;2024-03-25T00:22:59;4.13;;;1.13;;
86327;SDS011;76984;52.332;10.562;2024-03-25T00:24:00;2.28;;;0.95;;
86327;SDS011;76984;52.332;10.562;2024-03-25T00:25:00;4.88;;;1.23;;
86327;SDS011;76984;52.332;10.562;2024-03-25T00:26:01;3.28;;;0.98;;
86327;SDS011;76984;52.332;10.562;2024-03-25T00:27:02;6.93;;;1.65;;
86327;SDS011;76984;52.332;10.562;2024-03-25T00:28:02;3.35;;;1.05;;
86327;SDS011;76984;52.332;10.562;2024-03-25T00:29:02;4.03;;;1.30;;
86327;SDS011;76984;52.332;10.562;2024-03-25T00:30:03;3.53;;;1.50;;
86327;SDS011;76984;52.332;10.562;2024-03-25T00:31:05;3.95;;;1.35;;
86327;SDS011;76984;52.332;10.562;2024-03-25T00:32:05;4.57;;;1.40;;
86327;SDS011;76984;52.332;10.562;2024-03-25T00:33:06;4.97;;;1.20;;
86327;SDS011;76984;52.332;10.562;2024-03-25T00:34:08;3.58;;;1.30;;
86327;SDS011;76984;52.332;10.562;2024-03-25T00:35:09;5.93;;;1.30;;
86327;SDS011;76984;52.332;10.562;2024-03-25T00:36:09;3.28;;;1.60;;
86327;SDS011;76984;52.332;10.562;2024-03-25T00:37:09;7.47;;;1.45;;
86327;SDS011;76984;52.332;10.562;2024-03-25T00:38:10;4.00;;;1.20;;
86327;SDS011;76984;52.332;10.562;2024-03-25T00:39:10;4.25;;;1.67;;
86327;SDS011;76984;52.332;10.562;2024-03-25T00:40:10;6.57;;;1.30;;
86327;SDS011;76984;52.332;10.562;2024-03-25T00:41:11;3.80;;;1.10;;
86327;SDS011;76984;52.332;10.562;2024-03-25T00:42:12;4.57;;;1.10;;
86327;SDS011;76984;52.332;10.562;2024-03-25T00:43:12;5.18;;;1.40;;
86327;SDS011;76984;52.332;10.562;2024-03-25T00:44:12;5.00;;;1.45;;
86327;SDS011;76984;52.332;10.562;2024-03-25T00:45:13;8.45;;;1.70;;
86327;SDS011;76984;52.332;10.562;2024-03-25T00:46:13;4.38;;;1.77;;
86327;SDS011;76984;52.332;10.562;2024-03-25T00:47:13;4.57;;;1.45;;
86327;SDS011;76984;52.332;10.562;2024-03-25T00:48:13;6.20;;;1.42;;
86327;SDS011;76984;52.332;10.562;2024-03-25T00:49:14;7.05;;;1.77;;
86327;SDS011;76984;52.332;10.562;2024-03-25T00:50:14;4.25;;;1.60;;
86327;SDS011;76984;52.332;10.562;2024-03-25T00:51:15;5.68;;;1.63;;
86327;SDS011;76984;52.332;10.562;2024-03-25T00:52:15;5.75;;;1.63;;
86327;SDS011;76984;52.332;10.562;2024-03-25T00:53:15;3.58;;;1.38;;
86327;SDS011;76984;52.332;10.562;2024-03-25T00:54:16;5.38;;;1.70;;
86327;SDS011;76984;52.332;10.562;2024-03-25T00:55:16;4.80;;;1.70;;
86327;SDS011;76984;52.332;10.562;2024-03-25T00:56:16;4.70;;;1.50;;
86327;SDS011;76984;52.332;10.562;2024-03-25T00:57:17;5.97;;;1.80;;
86327;SDS011;76984;52.332;10.562;2024-03-25T00:58:18;3.53;;;1.63;;
86327;SDS011;76984;52.332;10.562;2024-03-25T00:59:19;5.78;;;1.63;;
86327;SDS011;76984;52.332;10.562;2024-03-25T01:00:19;6.88;;;1.55;;
86327;SDS011;76984;52.332;10.562;2024-03-25T01:01:19;2.75;;;1.80;;
86327;SDS011;76984;52.332;10.562;2024-03-25T01:02:19;5.28;;;2.03;;
86327;SDS011;76984;52.332;10.562;2024-03-25T01:03:20;5.93;;;1.65;;
86327;SDS011;76984;52.332;10.562;2024-03-25T01:04:20;3.97;;;1.77;;
86327;SDS011;76984;52.332;10.562;2024-03-25T01:05:20;9.40;;;1.98;;
86327;SDS011;76984;52.332;10.562;2024-03-25T01:06:21;4.47;;;1.30;;
86327;SDS011;76984;52.332;10.562;2024-03-25T01:07:21;5.43;;;1.92;;
86327;SDS011;76984;52.332;10.562;2024-03-25T01:08:21;6.13;;;1.92;;
86327;SDS011;76984;52.332;10.562;2024-03-25T01:09:21;4.22;;;1.90;;
86327;SDS011;76984;52.332;10.562;2024-03-25T01:10:22;8.68;;;1.70;;
86327;SDS011;76984;52.332;10.562;2024-03-25T01:11:22;6.35;;;1.83;;
86327;SDS011;76984;52.332;10.562;2024-03-25T01:12:22;6.32;;;1.83;;
86327;SDS011;76984;52.332;10.562;2024-03-25T01:13:23;5.65;;;2.35;;
86327;SDS011;76984;52.332;10.562;2024-03-25T01:14:23;5.22;;;1.98;;
86327;SDS011;76984;52.332;10.562;2024-03-25T01:15:23;6.32;;;1.88;;
86327;SDS011;76984;52.332;10.562;2024-03-25T01:16:23;7.15;;;2.03;;
86327;SDS011;76984;52.332;10.562;2024-03-25T01:17:24;5.47;;;2.35;;
86327;SDS011;76984;52.332;10.562;2024-03-25T01:18:24;5.07;;;1.60;;
86327;SDS011;76984;52.332;10.562;2024-03-25T01:19:24;4.57;;;1.73;;
86327;SDS011;76984;52.332;10.562;2024-03-25T01:20:24;6.47;;;1.63;;
86327;SDS011;76984;52.332;10.562;2024-03-25T01:21:25;5.95;;;2.22;;
86327;SDS011;76984;52.332;10.562;2024-03-25T01:22:25;6.10;;;1.88;;
86327;SDS011;76984;52.332;10.562;2024-03-25T01:23:25;6.78;;;1.92;;
86327;SDS011;76984;52.332;10.562;2024-03-25T01:24:26;8.07;;;1.92;;
86327;SDS011;76984;52.332;10.562;2024-03-25T01:25:26;3.53;;;1.65;;
86327;SDS011;76984;52.332;10.562;2024-03-25T01:26:26;5.68;;;2.20;;
86327;SDS011;76984;52.332;10.562;2024-03-25T01:27:28;10.73;;;2.03;;
86327;SDS011;76984;52.332;10.562;2024-03-25T01:28:29;6.97;;;1.90;;
86327;SDS011;76984;52.332;10.562;2024-03-25T01:29:29;7.45;;;2.25;;
86327;SDS011;76984;52.332;10.562;2024-03-25T01:30:29;6.90;;;2.50;;
86327;SDS011;76984;52.332;10.562;2024-03-25T01:31:30;5.80;;;2.22;;
86327;SDS011;76984;52.332;10.562;2024-03-25T01:32:30;7.07;;;2.08;;
86327;SDS011;76984;52.332;10.562;2024-03-25T01:33:31;5.25;;;1.90;;
86327;SDS011;76984;52.332;10.562;2024-03-25T01:34:32;5.70;;;2.05;;
86327;SDS011;76984;52.332;10.562;2024-03-25T01:35:32;7.35;;;2.05;;
86327;SDS011;76984;52.332;10.562;2024-03-25T01:36:32;5.93;;;1.92;;
86327;SDS011;76984;52.332;10.562;2024-03-25T01:37:34;5.93;;;2.00;;
86327;SDS011;76984;52.332;10.562;2024-03-25T01:38:34;6.22;;;1.67;;
86327;SDS011;76984;52.332;10.562;2024-03-25T01:39:34;4.22;;;1.50;;
86327;SDS011;76984;52.332;10.562;2024-03-25T01:40:35;8.93;;;1.88;;
86327;SDS011;76984;52.332;10.562;2024-03-25T01:41:35;5.45;;;1.90;;
86327;SDS011;76984;52.332;10.562;2024-03-25T01:42:36;5.13;;;2.17;;
86327;SDS011;76984;52.332;10.562;2024-03-25T01:43:37;7.85;;;1.85;;
86327;SDS011;76984;52.332;10.562;2024-03-25T01:44:37;6.57;;;1.90;;
86327;SDS011;76984;52.332;10.562;2024-03-25T01:45:37;4.60;;;1.63;;
86327;SDS011;76984;52.332;10.562;2024-03-25T01:46:38;7.25;;;1.70;;
86327;SDS011;76984;52.332;10.562;2024-03-25T01:47:39;5.47;;;1.70;;
86327;SDS011;76984;52.332;10.562;2024-03-25T01:48:39;4.00;;;1.27;;
86327;SDS011;76984;52.332;10.562;2024-03-25T01:49:40;7.05;;;2.13;;
86327;SDS011;76984;52.332;10.562;2024-03-25T01:50:41;5.10;;;1.90;;
86327;SDS011;76984;52.332;10.562;2024-03-25T01:51:43;6.20;;;2.15;;
86327;SDS011;76984;52.332;10.562;2024-03-25T01:52:44;3.90;;;1.63;;
86327;SDS011;76984;52.332;10.562;2024-03-25T01:53:44;6.13;;;1.63;;
86327;SDS011;76984;52.332;10.562;2024-03-25T01:54:46;5.85;;;1.67;;
86327;SDS011;76984;52.332;10.562;2024-03-25T01:55:47;6.18;;;1.92;;
86327;SDS011;76984;52.332;10.562;2024-03-25T01:56:48;3.80;;;1.90;;
86327;SDS011;76984;52.332;10.562;2024-03-25T01:57:49;5.50;;;1.95;;
86327;SDS011;76984;52.332;10.562;2024-03-25T01:58:50;6.80;;;2.25;;
86327;SDS011;76984;52.332;10.562;2024-03-25T01:59:50;5.28;;;1.83;;
86327;SDS011;76984;52.332;10.562;2024-03-25T02:00:52;6.35;;;1.65;;
86327;SDS011;76984;52.332;10.562;2024-03-25T02:01:54;3.53;;;1.52;;
86327;SDS011;76984;52.332;10.562;2024-03-25T02:02:56;3.42;;;1.58;;
86327;SDS011;76984;52.332;10.562;2024-03-25T02:03:56;5.30;;;1.75;;
86327;SDS011;76984;52.332;10.562;2024-03-25T02:04:57;8.27;;;1.98;;
86327;SDS011;76984;52.332;10.562;2024-03-25T02:05:59;11.90;;;2.03;;
86327;SDS011;76984;52.332;10.562;2024-03-25T02:07:02;5.65;;;1.90;;
86327;SDS011;76984;52.332;10.562;2024-03-25T02:08:03;7.30;;;2.00;;
86327;SDS011;76984;52.332;10.562;2024-03-25T02:09:06;7.55;;;1.90;;
86327;SDS011;76984;52.332;10.562;2024-03-25T02:10:07;10.20;;;2.53;;
86327;SDS011;76984;52.332;10.562;2024-03-25T02:11:11;5.38;;;1.75;;
86327;SDS011;76984;52.332;10.562;2024-03-25T02:12:12;4.93;;;1.95;;
86327;SDS011;76984;52.332;10.562;2024-03-25T02:13:12;7.18;;;2.05;;
86327;SDS011;76984;52.332;10.562;2024-03-25T02:14:14;5.53;;;1.95;;
86327;SDS011;76984;52.332;10.562;2024-03-25T02:15:15;5.60;;;1.85;;
86327;SDS011;76984;52.332;10.562;2024-03-25T02:16:15;4.65;;;1.88;;
86327;SDS011;76984;52.332;10.562;2024-03-25T02:17:15;6.10;;;2.25;;
86327;SDS011;76984;52.332;10.562;2024-03-25T02:18:16;7.15;;;2.15;;
86327;SDS011;76984;52.332;10.562;2024-03-25T02:19:17;5.28;;;2.00;;
86327;SDS011;76984;52.332;10.562;2024-03-25T02:20:18;4.65;;;2.10;;
86327;SDS011;76984;52.332;10.562;2024-03-25T02:21:18;3.38;;;1.77;;
86327;SDS011;76984;52.332;10.562;2024-03-25T02:22:19;6.63;;;2.00;;
86327;SDS011;76984;52.332;10.562;2024-03-25T02:23:19;4.97;;;2.42;;
86327;SDS011;76984;52.332;10.562;2024-03-25T02:24:19;6.35;;;2.13;;
86327;SDS011;76984;52.332;10.562;2024-03-25T02:25:22;6.95;;;1.67;;
86327;SDS011;76984;52.332;10.562;2024-03-25T02:26:23;5.32;;;2.15;;
86327;SDS011;76984;52.332;10.562;2024-03-25T02:27:24;8.82;;;2.08;;
86327;SDS011;76984;52.332;10.562;2024-03-25T02:28:25;4.13;;;2.00;;
86327;SDS011;76984;52.332;10.562;2024-03-25T02:29:34;5.95;;;2.10;;
86327;SDS011;76984;52.332;10.562;2024-03-25T02:30:34;7.00;;;1.50;;
86327;SDS011;76984;52.332;10.562;2024-03-25T02:31:36;9.52;;;2.35;;
86327;SDS011;76984;52.332;10.562;2024-03-25T02:32:37;3.47;;;2.00;;
86327;SDS011;76984;52.332;10.562;2024-03-25T02:33:37;4.07;;;2.15;;
86327;SDS011;76984;52.332;10.562;2024-03-25T02:34:38;7.50;;;2.10;;
86327;SDS011;76984;52.332;10.562;2024-03-25T02:35:41;7.20;;;2.20;;
86327;SDS011;76984;52.332;10.562;2024-03-25T02:36:43;5.50;;;1.90;;
86327;SDS011;76984;52.332;10.562;2024-03-25T02:37:44;6.20;;;2.35;;
86327;SDS011;76984;52.332;10.562;2024-03-25T02:38:44;10.80;;;2.00;;
86327;SDS011;76984;52.332;10.562;2024-03-25T02:39:44;4.65;;;2.10;;
86327;SDS011;76984;52.332;10.562;2024-03-25T02:40:45;10.52;;;2.38;;
86327;SDS011;76984;52.332;10.562;2024-03-25T02:41:45;8.10;;;2.58;;
86327;SDS011;76984;52.332;10.562;2024-03-25T02:42:46;7.45;;;2.10;;
86327;SDS011;76984;52.332;10.562;2024-03-25T02:43:47;5.45;;;2.45;;
86327;SDS011;76984;52.332;10.562;2024-03-25T02:44:47;6.15;;;1.75;;
86327;SDS011;76984;52.332;10.562;2024-03-25T02:45:48;10.13;;;2.95;;
86327;SDS011;76984;52.332;10.562;2024-03-25T02:46:49;4.70;;;2.33;;
86327;SDS011;76984;52.332;10.562;2024-03-25T02:47:49;5.85;;;2.13;;
86327;SDS011;76984;52.332;10.562;2024-03-25T02:48:50;4.30;;;2.08;;
86327;SDS011;76984;52.332;10.562;2024-03-25T02:49:51;5.93;;;2.45;;
86327;SDS011;76984;52.332;10.562;2024-03-25T02:50:51;10.60;;;2.22;;
86327;SDS011;76984;52.332;10.562;2024-03-25T02:51:52;8.80;;;2.65;;
86327;SDS011;76984;52.332;10.562;2024-03-25T02:52:52;5.38;;;2.17;;
86327;SDS011;76984;52.332;10.562;2024-03-25T02:53:53;5.93;;;2.80;;
86327;SDS011;76984;52.332;10.562;2024-03-25T02:54:53;7.13;;;2.03;;
86327;SDS011;76984;52.332;10.562;2024-03-25T02:55:56;5.38;;;2.38;;
86327;SDS011;76984;52.332;10.562;2024-03-25T02:56:56;6.40;;;2.50;;
86327;SDS011;76984;52.332;10.562;2024-03-25T02:57:56;5.80;;;1.90;;
86327;SDS011;76984;52.332;10.562;2024-03-25T02:58:57;4.25;;;2.00;;
86327;SDS011;76984;52.332;10.562;2024-03-25T02:59:57;8.02;;;2.10;;
86327;SDS011;76984;52.332;10.562;2024-03-25T03:00:57;5.13;;;2.00;;
86327;SDS011;76984;52.332;10.562;2024-03-25T03:01:58;6.65;;;1.80;;
86327;SDS011;76984;52.332;10.562;2024-03-25T03:02:58;4.38;;;1.90;;
86327;SDS011;76984;52.332;10.562;2024-03-25T03:03:58;5.07;;;2.00;;
86327;SDS011;76984;52.332;10.562;2024-03-25T03:04:58;5.53;;;1.98;;
86327;SDS011;76984;52.332;10.562;2024-03-25T03:05:59;9.02;;;2.30;;
86327;SDS011;76984;52.332;10.562;2024-03-25T03:06:59;3.00;;;1.48;;
86327;SDS011;76984;52.332;10.562;2024-03-25T03:08:00;4.35;;;1.50;;
86327;SDS011;76984;52.332;10.562;2024-03-25T03:09:00;8.00;;;1.98;;
86327;SDS011;76984;52.332;10.562;2024-03-25T03:10:00;5.22;;;1.67;;
86327;SDS011;76984;52.332;10.562;2024-03-25T03:11:01;3.25;;;1.55;;
86327;SDS011;76984;52.332;10.562;2024-03-25T03:12:01;4.53;;;1.80;;
86327;SDS011;76984;52.332;10.562;2024-03-25T03:13:01;5.90;;;1.55;;
86327;SDS011;76984;52.332;10.562;2024-03-25T03:14:01;3.65;;;2.00;;
86327;SDS011;76984;52.332;10.562;2024-03-25T03:15:02;5.30;;;1.88;;
86327;SDS011;76984;52.332;10.562;2024-03-25T03:16:03;4.97;;;1.80;;
86327;SDS011;76984;52.332;10.562;2024-03-25T03:17:04;5.88;;;2.30;;
86327;SDS011;76984;52.332;10.562;2024-03-25T03:18:04;4.13;;;2.33;;
86327;SDS011;76984;52.332;10.562;2024-03-25T03:19:05;5.82;;;2.55;;
86327;SDS011;76984;52.332;10.562;2024-03-25T03:20:05;8.38;;;1.88;;
86327;SDS011;76984;52.332;10.562;2024-03-25T03:21:06;6.85;;;2.03;;
86327;SDS011;76984;52.332;10.562;2024-03-25T03:22:06;10.98;;;2.53;;
86327;SDS011;76984;52.332;10.562;2024-03-25T03:23:07;5.57;;;2.28;;
86327;SDS011;76984;52.332;10.562;2024-03-25T03:24:07;6.72;;;2.50;;
86327;SDS011;76984;52.332;10.562;2024-03-25T03:25:08;4.80;;;2.33;;
86327;SDS011;76984;52.332;10.562;2024-03-25T03:26:08;9.68;;;2.20;;
86327;SDS011;76984;52.332;10.562;2024-03-25T03:27:08;8.32;;;2.45;;
86327;SDS011;76984;52.332;10.562;2024-03-25T03:28:09;10.38;;;2.72;;
86327;SDS011;76984;52.332;10.562;2024-03-25T03:29:09;5.90;;;2.28;;
86327;SDS011;76984;52.332;10.562;2024-03-25T03:30:10;8.68;;;3.15;;
86327;SDS011;76984;52.332;10.562;2024-03-25T03:31:10;7.00;;;2.90;;
86327;SDS011;76984;52.332;10.562;2024-03-25T03:32:11;6.63;;;3.00;;
86327;SDS011;76984;52.332;10.562;2024-03-25T03:33:11;6.70;;;2.75;;
86327;SDS011;76984;52.332;10.562;2024-03-25T03:34:11;8.98;;;2.95;;
86327;SDS011;76984;52.332;10.562;2024-03-25T03:35:12;8.98;;;3.67;;
86327;SDS011;76984;52.332;10.562;2024-03-25T03:36:12;7.60;;;3.13;;
86327;SDS011;76984;52.332;10.562;2024-03-25T03:37:12;6.97;;;2.55;;
86327;SDS011;76984;52.332;10.562;2024-03-25T03:38:13;5.72;;;3.00;;
86327;SDS011;76984;52.332;10.562;2024-03-25T03:39:13;6.93;;;3.00;;
86327;SDS011;76984;52.332;10.562;2024-03-25T03:40:15;10.15;;;3.10;;
86327;SDS011;76984;52.332;10.562;2024-03-25T03:41:15;8.15;;;2.90;;
86327;SDS011;76984;52.332;10.562;2024-03-25T03:42:16;6.07;;;2.95;;
86327;SDS011;76984;52.332;10.562;2024-03-25T03:43:16;6.90;;;2.78;;
86327;SDS011;76984;52.332;10.562;2024-03-25T03:44:16;8.15;;;2.95;;
86327;SDS011;76984;52.332;10.562;2024-03-25T03:45:16;5.47;;;2.45;;
86327;SDS011;76984;52.332;10.562;2024-03-25T03:46:17;5.93;;;2.53;;
86327;SDS011;76984;52.332;10.562;2024-03-25T03:47:17;10.48;;;3.20;;
86327;SDS011;76984;52.332;10.562;2024-03-25T03:48:17;9.32;;;2.95;;
86327;SDS011;76984;52.332;10.562;2024-03-25T03:49:18;9.52;;;3.08;;
86327;SDS011;76984;52.332;10.562;2024-03-25T03:50:18;5.43;;;2.05;;
86327;SDS011;76984;52.332;10.562;2024-03-25T03:51:18;8.63;;;2.63;;
86327;SDS011;76984;52.332;10.562;2024-03-25T03:52:19;12.15;;;3.45;;
86327;SDS011;76984;52.332;10.562;2024-03-25T03:53:20;9.95;;;3.03;;
86327;SDS011;76984;52.332;10.562;2024-03-25T03:54:20;7.97;;;3.15;;
86327;SDS011;76984;52.332;10.562;2024-03-25T03:55:20;10.55;;;2.60;;
86327;SDS011;76984;52.332;10.562;2024-03-25T03:56:21;9.02;;;2.60;;
86327;SDS011;76984;52.332;10.562;2024-03-25T03:57:21;7.68;;;3.40;;
86327;SDS011;76984;52.332;10.562;2024-03-25T03:58:21;5.78;;;3.08;;
86327;SDS011;76984;52.332;10.562;2024-03-25T03:59:22;8.13;;;2.63;;
86327;SDS011;76984;52.332;10.562;2024-03-25T04:00:23;6.15;;;2.58;;
86327;SDS011;76984;52.332;10.562;2024-03-25T04:01:23;7.97;;;2.80;;
86327;SDS011;76984;52.332;10.562;2024-03-25T04:02:24;15.75;;;3.13;;
86327;SDS011;76984;52.332;10.562;2024-03-25T04:03:26;7.18;;;2.92;;
86327;SDS011;76984;52.332;10.562;2024-03-25T04:04:26;10.05;;;2.72;;
86327;SDS011;76984;52.332;10.562;2024-03-25T04:05:29;9.10;;;2.40;;
86327;SDS011;76984;52.332;10.562;2024-03-25T04:06:30;8.63;;;2.72;;
86327;SDS011;76984;52.332;10.562;2024-03-25T04:07:31;7.50;;;2.58;;
86327;SDS011;76984;52.332;10.562;2024-03-25T04:08:32;6.30;;;2.40;;
86327;SDS011;76984;52.332;10.562;2024-03-25T04:09:32;5.78;;;2.72;;
86327;SDS011;76984;52.332;10.562;2024-03-25T04:10:33;4.95;;;2.47;;
86327;SDS011;76984;52.332;10.562;2024-03-25T04:11:35;7.00;;;2.53;;
86327;SDS011;76984;52.332;10.562;2024-03-25T04:12:36;10.70;;;2.47;;
86327;SDS011;76984;52.332;10.562;2024-03-25T04:13:36;8.18;;;3.10;;
86327;SDS011;76984;52.332;10.562;2024-03-25T04:14:37;9.25;;;2.63;;
86327;SDS011;76984;52.332;10.562;2024-03-25T04:15:39;7.78;;;2.80;;
86327;SDS011;76984;52.332;10.562;2024-03-25T04:16:40;8.57;;;3.28;;
86327;SDS011;76984;52.332;10.562;2024-03-25T04:17:41;9.93;;;2.78;;
86327;SDS011;76984;52.332;10.562;2024-03-25T04:18:41;7.22;;;2.33;;
86327;SDS011;76984;52.332;10.562;2024-03-25T04:19:42;8.02;;;2.35;;
86327;SDS011;76984;52.332;10.562;2024-03-25T04:20:42;6.13;;;2.15;;
86327;SDS011;76984;52.332;10.562;2024-03-25T04:21:43;4.13;;;2.33;;
86327;SDS011;76984;52.332;10.562;2024-03-25T04:22:43;9.73;;;2.22;;
86327;SDS011;76984;52.332;10.562;2024-03-25T04:23:47;6.18;;;2.25;;
86327;SDS011;76984;52.332;10.562;2024-03-25T04:24:49;8.48;;;2.30;;
86327;SDS011;76984;52.332;10.562;2024-03-25T04:25:49;5.88;;;2.60;;
86327;SDS011;76984;52.332;10.562;2024-03-25T04:26:50;8.45;;;2.63;;
86327;SDS011;76984;52.332;10.562;2024-03-25T04:27:51;3.95;;;2.25;;
86327;SDS011;76984;52.332;10.562;2024-03-25T04:28:51;6.20;;;2.25;;
86327;SDS011;76984;52.332;10.562;2024-03-25T04:29:52;5.70;;;2.40;;
86327;SDS011;76984;52.332;10.562;2024-03-25T04:30:52;7.35;;;2.20;;
86327;SDS011;76984;52.332;10.562;2024-03-25T04:31:53;5.72;;;2.33;;
86327;SDS011;76984;52.332;10.562;2024-03-25T04:32:53;11.98;;;2.25;;
86327;SDS011;76984;52.332;10.562;2024-03-25T04:33:54;11.63;;;2.10;;
86327;SDS011;76984;52.332;10.562;2024-03-25T04:34:54;7.50;;;2.45;;
86327;SDS011;76984;52.332;10.562;2024-03-25T04:35:55;8.20;;;2.45;;
86327;SDS011;76984;52.332;10.562;2024-03-25T04:36:55;5.63;;;2.03;;
86327;SDS011;76984;52.332;10.562;2024-03-25T04:37:56;5.63;;;1.95;;
86327;SDS011;76984;52.332;10.562;2024-03-25T04:38:56;5.60;;;2.40;;
86327;SDS011;76984;52.332;10.562;2024-03-25T04:39:57;7.43;;;2.50;;
86327;SDS011;76984;52.332;10.562;2024-03-25T04:40:57;6.55;;;2.20;;
86327;SDS011;76984;52.332;10.562;2024-03-25T04:41:57;8.43;;;2.28;;
86327;SDS011;76984;52.332;10.562;2024-03-25T04:42:57;6.55;;;3.60;;
86327;SDS011;76984;52.332;10.562;2024-03-25T04:43:58;8.75;;;2.35;;
86327;SDS011;76984;52.332;10.562;2024-03-25T04:44:58;8.57;;;2.42;;
86327;SDS011;76984;52.332;10.562;2024-03-25T04:46:01;9.07;;;2.42;;
86327;SDS011;76984;52.332;10.562;2024-03-25T04:47:02;7.93;;;2.35;;
86327;SDS011;76984;52.332;10.562;2024-03-25T04:48:02;8.13;;;2.50;;
86327;SDS011;76984;52.332;10.562;2024-03-25T04:49:02;7.10;;;2.03;;
86327;SDS011;76984;52.332;10.562;2024-03-25T04:50:03;6.18;;;2.47;;
86327;SDS011;76984;52.332;10.562;2024-03-25T04:51:04;5.05;;;1.83;;
86327;SDS011;76984;52.332;10.562;2024-03-25T04:52:04;5.10;;;1.90;;
86327;SDS011;76984;52.332;10.562;2024-03-25T04:53:04;6.55;;;2.25;;
86327;SDS011;76984;52.332;10.562;2024-03-25T04:54:05;7.40;;;2.30;;
86327;SDS011;76984;52.332;10.562;2024-03-25T04:55:05;5.82;;;3.03;;
86327;SDS011;76984;52.332;10.562;2024-03-25T04:56:05;7.10;;;2.40;;
86327;SDS011;76984;52.332;10.562;2024-03-25T04:57:06;5.82;;;2.53;;
86327;SDS011;76984;52.332;10.562;2024-03-25T04:58:06;5.90;;;2.60;;
86327;SDS011;76984;52.332;10.562;2024-03-25T04:59:06;4.70;;;2.55;;
86327;SDS011;76984;52.332;10.562;2024-03-25T05:00:07;7.20;;;3.42;;
86327;SDS011;76984;52.332;10.562;2024-03-25T05:01:10;7.20;;;2.72;;
86327;SDS011;76984;52.332;10.562;2024-03-25T05:02:11;4.75;;;2.10;;
86327;SDS011;76984;52.332;10.562;2024-03-25T05:03:11;13.05;;;3.22;;
86327;SDS011;76984;52.332;10.562;2024-03-25T05:04:11;6.82;;;2.47;;
86327;SDS011;76984;52.332;10.562;2024-03-25T05:05:11;9.75;;;2.47;;
86327;SDS011;76984;52.332;10.562;2024-03-25T05:06:12;5.80;;;2.47;;
86327;SDS011;76984;52.332;10.562;2024-03-25T05:07:12;9.52;;;2.40;;
86327;SDS011;76984;52.332;10.562;2024-03-25T05:08:12;6.65;;;1.98;;
86327;SDS011;76984;52.332;10.562;2024-03-25T05:09:13;8.30;;;2.60;;
86327;SDS011;76984;52.332;10.562;2024-03-25T05:10:13;6.95;;;2.33;;
86327;SDS011;76984;52.332;10.562;2024-03-25T05:11:13;5.30;;;2.95;;
86327;SDS011;76984;52.332;10.562;2024-03-25T05:12:13;6.13;;;2.72;;
86327;SDS011;76984;52.332;10.562;2024-03-25T05:13:14;7.75;;;2.25;;
86327;SDS011;76984;52.332;10.562;2024-03-25T05:14:15;6.82;;;2.40;;
86327;SDS011;76984;52.332;10.562;2024-03-25T05:15:15;9.32;;;2.80;;
86327;SDS011;76984;52.332;10.562;2024-03-25T05:16:15;6.28;;;2.47;;
86327;SDS011;76984;52.332;10.562;2024-03-25T05:17:16;5.18;;;2.30;;
86327;SDS011;76984;52.332;10.562;2024-03-25T05:18:17;11.40;;;3.28;;
86327;SDS011;76984;52.332;10.562;2024-03-25T05:19:18;5.55;;;2.30;;
86327;SDS011;76984;52.332;10.562;2024-03-25T05:20:18;7.32;;;2.33;;
86327;SDS011;76984;52.332;10.562;2024-03-25T05:21:18;6.85;;;2.80;;
86327;SDS011;76984;52.332;10.562;2024-03-25T05:22:19;7.57;;;2.58;;
86327;SDS011;76984;52.332;10.562;2024-03-25T05:23:19;6.65;;;2.75;;
86327;SDS011;76984;52.332;10.562;2024-03-25T05:24:19;7.93;;;2.90;;
86327;SDS011;76984;52.332;10.562;2024-03-25T05:25:20;7.88;;;2.63;;
86327;SDS011;76984;52.332;10.562;2024-03-25T05:27:24;8.13;;;2.35;;
86327;SDS011;76984;52.332;10.562;2024-03-25T05:28:25;11.00;;;2.95;;
86327;SDS011;76984;52.332;10.562;2024-03-25T05:29:25;6.82;;;2.47;;
86327;SDS011;76984;52.332;10.562;2024-03-25T05:30:25;7.28;;;2.63;;
86327;SDS011;76984;52.332;10.562;2024-03-25T05:31:25;12.07;;;2.33;;
86327;SDS011;76984;52.332;10.562;2024-03-25T05:32:26;5.85;;;1.95;;
86327;SDS011;76984;52.332;10.562;2024-03-25T05:33:26;4.93;;;2.13;;
86327;SDS011;76984;52.332;10.562;2024-03-25T05:34:27;5.50;;;2.75;;
86327;SDS011;76984;52.332;10.562;2024-03-25T05:35:28;7.57;;;1.92;;
86327;SDS011;76984;52.332;10.562;2024-03-25T05:36:28;6.07;;;2.83;;
86327;SDS011;76984;52.332;10.562;2024-03-25T05:37:28;5.93;;;3.30;;
86327;SDS011;76984;52.332;10.562;2024-03-25T05:38:32;7.95;;;2.40;;
86327;SDS011;76984;52.332;10.562;2024-03-25T05:39:33;4.57;;;2.20;;
86327;SDS011;76984;52.332;10.562;2024-03-25T05:40:33;7.22;;;2.53;;
86327;SDS011;76984;52.332;10.562;2024-03-25T05:41:33;8.82;;;2.45;;
86327;SDS011;76984;52.332;10.562;2024-03-25T05:42:33;5.50;;;2.15;;
86327;SDS011;76984;52.332;10.562;2024-03-25T05:43:34;8.52;;;2.67;;
86327;SDS011;76984;52.332;10.562;2024-03-25T05:44:34;12.65;;;2.75;;
86327;SDS011;76984;52.332;10.562;2024-03-25T05:45:34;13.18;;;3.58;;
86327;SDS011;76984;52.332;10.562;2024-03-25T05:46:35;9.98;;;2.85;;
86327;SDS011;76984;52.332;10.562;2024-03-25T05:47:35;6.38;;;2.60;;
86327;SDS011;76984;52.332;10.562;2024-03-25T05:48:35;6.78;;;2.70;;
86327;SDS011;76984;52.332;10.562;2024-03-25T05:49:36;8.25;;;2.40;;
86327;SDS011;76984;52.332;10.562;2024-03-25T05:50:36;5.70;;;2.40;;
86327;SDS011;76984;52.332;10.562;2024-03-25T05:51:36;7.78;;;2.42;;
86327;SDS011;76984;52.332;10.562;2024-03-25T05:52:36;8.68;;;2.78;;
86327;SDS011;76984;52.332;10.562;2024-03-25T05:53:37;6.78;;;2.67;;
86327;SDS011;76984;52.332;10.562;2024-03-25T05:54:38;7.68;;;2.30;;
86327;SDS011;76984;52.332;10.562;2024-03-25T05:55:38;8.65;;;2.28;;
86327;SDS011;76984;52.332;10.562;2024-03-25T05:56:38;5.88;;;2.60;;
86327;SDS011;76984;52.332;10.562;2024-03-25T05:57:39;8.93;;;2.80;;
86327;SDS011;76984;52.332;10.562;2024-03-25T05:58:39;7.07;;;2.60;;
86327;SDS011;76984;52.332;10.562;2024-03-25T05:59:39;7.22;;;3.00;;
86327;SDS011;76984;52.332;10.562;2024-03-25T06:00:39;6.45;;;2.53;;